sensor_id;sensor_type;location;lat;lon;timestamp;P1;durP1;ratioP1;P2;durP2;ratioP2
55811;SDS011;41742;52.048;6.092;2022-12-16T00:02:14;19.77;;;11.50;;
55811;SDS011;41742;52.048;6.092;2022-12-16T00:04:40;22.90;;;11.05;;
55811;SDS011;41742;52.048;6.092;2022-12-16T00:07:05;19.90;;;11.80;;
55811;SDS011;41742;52.048;6.092;2022-12-16T00:09:31;20.85;;;10.85;;
55811;SDS011;41742;52.048;6.092;2022-12-16T00:11:56;28.10;;;11.23;;
55811;SDS011;41742;52.048;6.092;2022-12-16T00:14:22;19.65;;;9.77;;
55811;SDS011;41742;52.048;6.092;2022-12-16T00:16:48;16.45;;;9.88;;
55811;SDS011;41742;52.048;6.092;2022-12-16T00:19:14;22.90;;;10.98;;
55811;SDS011;41742;52.048;6.092;2022-12-16T00:21:39;19.73;;;10.23;;
55811;SDS011;41742;52.048;6.092;2022-12-16T00:24:05;25.02;;;10.93;;
55811;SDS011;41742;52.048;6.092;2022-12-16T00:26:30;20.70;;;9.90;;
55811;SDS011;41742;52.048;6.092;2022-12-16T00:28:56;21.00;;;10.98;;
55811;SDS011;41742;52.048;6.092;2022-12-16T00:31:22;22.63;;;11.90;;
55811;SDS011;41742;52.048;6.092;2022-12-16T00:33:48;26.13;;;11.00;;
55811;SDS011;41742;52.048;6.092;2022-12-16T00:36:13;21.20;;;10.70;;
55811;SDS011;41742;52.048;6.092;2022-12-16T00:38:39;22.02;;;11.07;;
55811;SDS011;41742;52.048;6.092;2022-12-16T00:41:05;16.48;;;9.57;;
55811;SDS011;41742;52.048;6.092;2022-12-16T00:43:31;17.83;;;9.45;;
55811;SDS011;41742;52.048;6.092;2022-12-16T00:45:56;20.48;;;10.80;;
55811;SDS011;41742;52.048;6.092;2022-12-16T00:48:22;19.95;;;10.70;;
55811;SDS011;41742;52.048;6.092;2022-12-16T00:50:49;23.05;;;11.32;;
55811;SDS011;41742;52.048;6.092;2022-12-16T00:53:15;16.35;;;10.27;;
55811;SDS011;41742;52.048;6.092;2022-12-16T00:55:41;25.65;;;10.00;;
55811;SDS011;41742;52.048;6.092;2022-12-16T00:58:07;19.75;;;10.25;;
55811;SDS011;41742;52.048;6.092;2022-12-16T01:00:33;23.10;;;11.35;;
55811;SDS011;41742;52.048;6.092;2022-12-16T01:02:59;24.83;;;12.27;;
55811;SDS011;41742;52.048;6.092;2022-12-16T01:05:25;19.73;;;9.70;;
55811;SDS011;41742;52.048;6.092;2022-12-16T01:07:52;22.85;;;9.95;;
55811;SDS011;41742;52.048;6.092;2022-12-16T01:10:19;17.45;;;10.05;;
55811;SDS011;41742;52.048;6.092;2022-12-16T01:12:44;17.50;;;10.07;;
55811;SDS011;41742;52.048;6.092;2022-12-16T01:15:10;19.55;;;10.15;;
55811;SDS011;41742;52.048;6.092;2022-12-16T01:17:37;18.17;;;9.55;;
55811;SDS011;41742;52.048;6.092;2022-12-16T01:20:03;24.75;;;10.43;;
55811;SDS011;41742;52.048;6.092;2022-12-16T01:22:30;21.02;;;11.20;;
55811;SDS011;41742;52.048;6.092;2022-12-16T01:24:57;18.33;;;9.63;;
55811;SDS011;41742;52.048;6.092;2022-12-16T01:27:23;24.60;;;9.75;;
55811;SDS011;41742;52.048;6.092;2022-12-16T01:29:48;23.17;;;9.27;;
55811;SDS011;41742;52.048;6.092;2022-12-16T01:32:14;19.42;;;9.57;;
55811;SDS011;41742;52.048;6.092;2022-12-16T01:34:40;19.20;;;9.50;;
55811;SDS011;41742;52.048;6.092;2022-12-16T01:37:10;16.90;;;9.88;;
55811;SDS011;41742;52.048;6.092;2022-12-16T01:39:36;18.50;;;9.93;;
55811;SDS011;41742;52.048;6.092;2022-12-16T01:42:02;20.52;;;10.73;;
55811;SDS011;41742;52.048;6.092;2022-12-16T01:44:28;21.40;;;10.70;;
55811;SDS011;41742;52.048;6.092;2022-12-16T01:46:55;23.20;;;10.95;;
55811;SDS011;41742;52.048;6.092;2022-12-16T01:49:43;20.50;;;10.73;;
55811;SDS011;41742;52.048;6.092;2022-12-16T01:52:12;18.75;;;10.27;;
55811;SDS011;41742;52.048;6.092;2022-12-16T01:54:44;21.00;;;10.77;;
55811;SDS011;41742;52.048;6.092;2022-12-16T01:57:17;21.70;;;10.95;;
55811;SDS011;41742;52.048;6.092;2022-12-16T01:59:48;19.77;;;10.18;;
55811;SDS011;41742;52.048;6.092;2022-12-16T02:02:17;19.85;;;10.30;;
55811;SDS011;41742;52.048;6.092;2022-12-16T02:04:43;17.33;;;9.68;;
55811;SDS011;41742;52.048;6.092;2022-12-16T02:09:53;21.80;;;10.68;;
55811;SDS011;41742;52.048;6.092;2022-12-16T02:12:23;22.95;;;10.23;;
55811;SDS011;41742;52.048;6.092;2022-12-16T02:15:47;19.15;;;10.18;;
55811;SDS011;41742;52.048;6.092;2022-12-16T02:21:44;22.80;;;9.82;;
55811;SDS011;41742;52.048;6.092;2022-12-16T02:30:30;20.73;;;10.38;;
55811;SDS011;41742;52.048;6.092;2022-12-16T02:35:55;19.02;;;10.20;;
55811;SDS011;41742;52.048;6.092;2022-12-16T02:38:36;17.35;;;9.95;;
55811;SDS011;41742;52.048;6.092;2022-12-16T02:41:26;21.35;;;10.60;;
55811;SDS011;41742;52.048;6.092;2022-12-16T02:44:07;18.77;;;9.43;;
55811;SDS011;41742;52.048;6.092;2022-12-16T02:46:40;19.10;;;10.00;;
55811;SDS011;41742;52.048;6.092;2022-12-16T02:49:34;17.83;;;9.90;;
55811;SDS011;41742;52.048;6.092;2022-12-16T02:51:54;19.42;;;10.18;;
55811;SDS011;41742;52.048;6.092;2022-12-16T02:54:21;22.55;;;10.38;;
55811;SDS011;41742;52.048;6.092;2022-12-16T02:56:57;21.00;;;9.15;;
55811;SDS011;41742;52.048;6.092;2022-12-16T02:59:36;20.63;;;10.40;;
55811;SDS011;41742;52.048;6.092;2022-12-16T03:05:20;17.42;;;9.60;;
55811;SDS011;41742;52.048;6.092;2022-12-16T03:07:59;15.50;;;9.57;;
55811;SDS011;41742;52.048;6.092;2022-12-16T03:10:31;24.40;;;10.95;;
55811;SDS011;41742;52.048;6.092;2022-12-16T03:13:04;22.17;;;10.68;;
55811;SDS011;41742;52.048;6.092;2022-12-16T03:15:31;18.67;;;10.10;;
55811;SDS011;41742;52.048;6.092;2022-12-16T03:17:59;16.90;;;9.57;;
55811;SDS011;41742;52.048;6.092;2022-12-16T03:20:29;21.83;;;10.88;;
55811;SDS011;41742;52.048;6.092;2022-12-16T03:23:19;22.63;;;10.02;;
55811;SDS011;41742;52.048;6.092;2022-12-16T03:28:27;20.35;;;10.13;;
55811;SDS011;41742;52.048;6.092;2022-12-16T03:33:56;19.60;;;10.27;;
55811;SDS011;41742;52.048;6.092;2022-12-16T03:36:29;22.55;;;11.25;;
55811;SDS011;41742;52.048;6.092;2022-12-16T03:38:58;25.00;;;10.63;;
55811;SDS011;41742;52.048;6.092;2022-12-16T03:41:26;23.55;;;9.57;;
55811;SDS011;41742;52.048;6.092;2022-12-16T03:43:54;24.77;;;11.18;;
55811;SDS011;41742;52.048;6.092;2022-12-16T03:46:20;19.70;;;10.77;;
55811;SDS011;41742;52.048;6.092;2022-12-16T03:48:48;23.63;;;11.15;;
55811;SDS011;41742;52.048;6.092;2022-12-16T03:51:16;24.90;;;11.73;;
55811;SDS011;41742;52.048;6.092;2022-12-16T03:53:42;23.08;;;11.25;;
55811;SDS011;41742;52.048;6.092;2022-12-16T03:56:08;30.15;;;12.05;;
55811;SDS011;41742;52.048;6.092;2022-12-16T03:58:35;23.88;;;12.48;;
55811;SDS011;41742;52.048;6.092;2022-12-16T04:01:02;31.95;;;13.25;;
55811;SDS011;41742;52.048;6.092;2022-12-16T04:03:28;33.85;;;13.75;;
55811;SDS011;41742;52.048;6.092;2022-12-16T04:05:53;28.15;;;13.60;;
55811;SDS011;41742;52.048;6.092;2022-12-16T04:08:19;38.72;;;14.60;;
55811;SDS011;41742;52.048;6.092;2022-12-16T04:10:44;28.60;;;13.40;;
55811;SDS011;41742;52.048;6.092;2022-12-16T04:13:29;30.83;;;12.32;;
55811;SDS011;41742;52.048;6.092;2022-12-16T04:21:42;35.30;;;14.35;;
55811;SDS011;41742;52.048;6.092;2022-12-16T04:24:34;32.80;;;13.88;;
55811;SDS011;41742;52.048;6.092;2022-12-16T04:27:00;29.90;;;13.32;;
55811;SDS011;41742;52.048;6.092;2022-12-16T04:29:44;27.27;;;13.90;;
55811;SDS011;41742;52.048;6.092;2022-12-16T04:35:14;33.45;;;12.82;;
55811;SDS011;41742;52.048;6.092;2022-12-16T04:37:59;32.90;;;13.27;;
55811;SDS011;41742;52.048;6.092;2022-12-16T04:43:27;30.60;;;12.00;;
55811;SDS011;41742;52.048;6.092;2022-12-16T04:48:55;28.00;;;12.77;;
55811;SDS011;41742;52.048;6.092;2022-12-16T04:51:40;30.90;;;12.43;;
55811;SDS011;41742;52.048;6.092;2022-12-16T04:57:08;26.40;;;12.48;;
55811;SDS011;41742;52.048;6.092;2022-12-16T05:00:02;29.02;;;12.50;;
55811;SDS011;41742;52.048;6.092;2022-12-16T05:02:47;33.53;;;13.25;;
55811;SDS011;41742;52.048;6.092;2022-12-16T05:05:32;29.23;;;12.88;;
55811;SDS011;41742;52.048;6.092;2022-12-16T05:11:01;21.95;;;11.45;;
55811;SDS011;41742;52.048;6.092;2022-12-16T05:13:45;29.75;;;11.68;;
55811;SDS011;41742;52.048;6.092;2022-12-16T05:19:13;26.30;;;12.95;;
55811;SDS011;41742;52.048;6.092;2022-12-16T05:24:41;27.23;;;11.90;;
55811;SDS011;41742;52.048;6.092;2022-12-16T05:27:26;26.52;;;11.77;;
55811;SDS011;41742;52.048;6.092;2022-12-16T05:30:11;23.95;;;11.63;;
55811;SDS011;41742;52.048;6.092;2022-12-16T05:32:55;28.08;;;12.90;;
55811;SDS011;41742;52.048;6.092;2022-12-16T05:35:39;33.03;;;13.02;;
55811;SDS011;41742;52.048;6.092;2022-12-16T05:38:24;22.33;;;11.20;;
55811;SDS011;41742;52.048;6.092;2022-12-16T05:41:08;28.02;;;12.95;;
55811;SDS011;41742;52.048;6.092;2022-12-16T05:46:36;29.47;;;12.40;;
55811;SDS011;41742;52.048;6.092;2022-12-16T05:52:04;27.73;;;11.68;;
55811;SDS011;41742;52.048;6.092;2022-12-16T05:57:33;21.23;;;11.52;;
55811;SDS011;41742;52.048;6.092;2022-12-16T06:00:17;24.58;;;10.68;;
55811;SDS011;41742;52.048;6.092;2022-12-16T06:05:46;22.73;;;11.80;;
55811;SDS011;41742;52.048;6.092;2022-12-16T06:11:14;25.60;;;10.98;;
55811;SDS011;41742;52.048;6.092;2022-12-16T06:16:42;21.42;;;10.98;;
55811;SDS011;41742;52.048;6.092;2022-12-16T06:22:11;20.27;;;11.07;;
55811;SDS011;41742;52.048;6.092;2022-12-16T06:24:55;26.45;;;10.85;;
55811;SDS011;41742;52.048;6.092;2022-12-16T06:27:39;22.40;;;10.90;;
55811;SDS011;41742;52.048;6.092;2022-12-16T06:30:24;24.10;;;11.00;;
55811;SDS011;41742;52.048;6.092;2022-12-16T06:33:08;19.80;;;9.65;;
55811;SDS011;41742;52.048;6.092;2022-12-16T06:35:52;16.50;;;9.27;;
55811;SDS011;41742;52.048;6.092;2022-12-16T06:38:36;27.27;;;10.23;;
55811;SDS011;41742;52.048;6.092;2022-12-16T06:41:21;21.75;;;11.00;;
55811;SDS011;41742;52.048;6.092;2022-12-16T06:46:49;24.90;;;9.47;;
55811;SDS011;41742;52.048;6.092;2022-12-16T06:49:34;25.80;;;10.73;;
55811;SDS011;41742;52.048;6.092;2022-12-16T06:55:02;27.67;;;10.50;;
55811;SDS011;41742;52.048;6.092;2022-12-16T06:57:46;21.38;;;10.63;;
55811;SDS011;41742;52.048;6.092;2022-12-16T07:00:31;19.55;;;9.70;;
55811;SDS011;41742;52.048;6.092;2022-12-16T07:03:15;24.13;;;9.32;;
55811;SDS011;41742;52.048;6.092;2022-12-16T07:08:44;19.65;;;10.23;;
55811;SDS011;41742;52.048;6.092;2022-12-16T07:14:12;18.80;;;9.00;;
55811;SDS011;41742;52.048;6.092;2022-12-16T07:19:41;15.50;;;9.43;;
55811;SDS011;41742;52.048;6.092;2022-12-16T07:22:25;17.65;;;7.53;;
55811;SDS011;41742;52.048;6.092;2022-12-16T07:27:53;12.98;;;7.55;;
55811;SDS011;41742;52.048;6.092;2022-12-16T07:30:37;15.30;;;8.20;;
55811;SDS011;41742;52.048;6.092;2022-12-16T07:33:22;20.80;;;9.27;;
55811;SDS011;41742;52.048;6.092;2022-12-16T07:38:50;15.38;;;7.97;;
55811;SDS011;41742;52.048;6.092;2022-12-16T07:41:34;11.05;;;7.03;;
55811;SDS011;41742;52.048;6.092;2022-12-16T07:44:19;14.00;;;7.75;;
55811;SDS011;41742;52.048;6.092;2022-12-16T07:47:03;12.43;;;6.85;;
55811;SDS011;41742;52.048;6.092;2022-12-16T07:49:47;13.00;;;7.38;;
55811;SDS011;41742;52.048;6.092;2022-12-16T07:52:32;14.80;;;7.18;;
55811;SDS011;41742;52.048;6.092;2022-12-16T07:58:00;14.68;;;7.35;;
55811;SDS011;41742;52.048;6.092;2022-12-16T08:03:29;11.03;;;6.70;;
55811;SDS011;41742;52.048;6.092;2022-12-16T08:06:13;12.15;;;6.93;;
55811;SDS011;41742;52.048;6.092;2022-12-16T08:11:42;13.10;;;7.20;;
55811;SDS011;41742;52.048;6.092;2022-12-16T08:14:26;12.88;;;7.20;;
55811;SDS011;41742;52.048;6.092;2022-12-16T08:17:11;12.52;;;6.45;;
55811;SDS011;41742;52.048;6.092;2022-12-16T08:22:39;14.97;;;5.40;;
55811;SDS011;41742;52.048;6.092;2022-12-16T08:28:08;8.38;;;4.72;;
55811;SDS011;41742;52.048;6.092;2022-12-16T08:33:36;8.27;;;5.10;;
55811;SDS011;41742;52.048;6.092;2022-12-16T08:39:04;11.23;;;5.50;;
55811;SDS011;41742;52.048;6.092;2022-12-16T08:41:49;11.68;;;6.00;;
55811;SDS011;41742;52.048;6.092;2022-12-16T08:44:33;12.25;;;6.38;;
55811;SDS011;41742;52.048;6.092;2022-12-16T08:50:02;7.60;;;4.70;;
55811;SDS011;41742;52.048;6.092;2022-12-16T08:52:47;8.73;;;4.88;;
55811;SDS011;41742;52.048;6.092;2022-12-16T08:58:16;7.22;;;4.20;;
55811;SDS011;41742;52.048;6.092;2022-12-16T09:01:00;17.45;;;5.68;;
55811;SDS011;41742;52.048;6.092;2022-12-16T09:03:45;9.73;;;4.60;;
55811;SDS011;41742;52.048;6.092;2022-12-16T09:06:29;11.52;;;4.80;;
55811;SDS011;41742;52.048;6.092;2022-12-16T09:11:57;6.70;;;4.20;;
55811;SDS011;41742;52.048;6.092;2022-12-16T09:14:42;10.80;;;5.63;;
55811;SDS011;41742;52.048;6.092;2022-12-16T09:20:10;9.32;;;4.43;;
55811;SDS011;41742;52.048;6.092;2022-12-16T09:22:55;6.85;;;4.30;;
55811;SDS011;41742;52.048;6.092;2022-12-16T09:25:39;10.25;;;4.30;;
55811;SDS011;41742;52.048;6.092;2022-12-16T09:31:07;8.45;;;4.85;;
55811;SDS011;41742;52.048;6.092;2022-12-16T09:33:52;13.50;;;7.55;;
55811;SDS011;41742;52.048;6.092;2022-12-16T09:36:36;17.45;;;8.45;;
55811;SDS011;41742;52.048;6.092;2022-12-16T09:39:20;14.95;;;7.45;;
55811;SDS011;41742;52.048;6.092;2022-12-16T09:45:25;20.05;;;8.93;;
55811;SDS011;41742;52.048;6.092;2022-12-16T09:48:46;18.75;;;9.38;;
55811;SDS011;41742;52.048;6.092;2022-12-16T09:51:39;16.48;;;8.45;;
55811;SDS011;41742;52.048;6.092;2022-12-16T09:54:25;16.88;;;9.13;;
55811;SDS011;41742;52.048;6.092;2022-12-16T09:57:12;19.98;;;10.63;;
55811;SDS011;41742;52.048;6.092;2022-12-16T10:00:04;20.55;;;10.95;;
55811;SDS011;41742;52.048;6.092;2022-12-16T10:02:54;24.80;;;11.85;;
55811;SDS011;41742;52.048;6.092;2022-12-16T10:06:00;25.60;;;12.13;;
55811;SDS011;41742;52.048;6.092;2022-12-16T10:09:14;21.40;;;11.32;;
55811;SDS011;41742;52.048;6.092;2022-12-16T10:21:52;31.02;;;12.23;;
55811;SDS011;41742;52.048;6.092;2022-12-16T10:28:09;27.75;;;13.20;;
55811;SDS011;41742;52.048;6.092;2022-12-16T10:31:12;23.60;;;12.80;;
55811;SDS011;41742;52.048;6.092;2022-12-16T10:33:59;27.58;;;12.15;;
55811;SDS011;41742;52.048;6.092;2022-12-16T10:36:43;29.23;;;12.85;;
55811;SDS011;41742;52.048;6.092;2022-12-16T10:39:30;26.33;;;12.00;;
55811;SDS011;41742;52.048;6.092;2022-12-16T10:42:25;35.30;;;13.10;;
55811;SDS011;41742;52.048;6.092;2022-12-16T10:45:23;22.80;;;12.25;;
55811;SDS011;41742;52.048;6.092;2022-12-16T10:48:11;28.42;;;12.15;;
55811;SDS011;41742;52.048;6.092;2022-12-16T10:50:59;25.98;;;12.90;;
55811;SDS011;41742;52.048;6.092;2022-12-16T10:53:44;28.00;;;12.38;;
55811;SDS011;41742;52.048;6.092;2022-12-16T10:59:38;21.48;;;10.63;;
55811;SDS011;41742;52.048;6.092;2022-12-16T11:02:24;24.48;;;12.75;;
55811;SDS011;41742;52.048;6.092;2022-12-16T11:08:30;26.48;;;11.35;;
55811;SDS011;41742;52.048;6.092;2022-12-16T11:14:16;19.80;;;8.32;;
55811;SDS011;41742;52.048;6.092;2022-12-16T11:20:21;16.08;;;8.15;;
55811;SDS011;41742;52.048;6.092;2022-12-16T11:31:49;15.20;;;6.45;;
55811;SDS011;41742;52.048;6.092;2022-12-16T11:34:38;10.32;;;5.90;;
55811;SDS011;41742;52.048;6.092;2022-12-16T11:37:26;15.10;;;6.45;;
55811;SDS011;41742;52.048;6.092;2022-12-16T11:40:12;13.85;;;7.35;;
55811;SDS011;41742;52.048;6.092;2022-12-16T11:43:02;14.15;;;6.95;;
55811;SDS011;41742;52.048;6.092;2022-12-16T11:45:59;19.75;;;7.57;;
55811;SDS011;41742;52.048;6.092;2022-12-16T11:48:46;14.25;;;7.65;;
55811;SDS011;41742;52.048;6.092;2022-12-16T11:51:35;15.52;;;8.20;;
55811;SDS011;41742;52.048;6.092;2022-12-16T11:54:22;19.13;;;9.50;;
55811;SDS011;41742;52.048;6.092;2022-12-16T11:57:21;20.65;;;9.45;;
55811;SDS011;41742;52.048;6.092;2022-12-16T12:00:12;18.52;;;10.30;;
55811;SDS011;41742;52.048;6.092;2022-12-16T12:03:17;23.27;;;10.55;;
55811;SDS011;41742;52.048;6.092;2022-12-16T12:06:24;18.02;;;9.13;;
55811;SDS011;41742;52.048;6.092;2022-12-16T12:09:21;20.23;;;9.18;;
55811;SDS011;41742;52.048;6.092;2022-12-16T12:12:20;21.80;;;10.00;;
55811;SDS011;41742;52.048;6.092;2022-12-16T12:18:23;16.83;;;8.90;;
55811;SDS011;41742;52.048;6.092;2022-12-16T12:21:22;20.35;;;9.02;;
55811;SDS011;41742;52.048;6.092;2022-12-16T12:27:08;18.15;;;8.30;;
55811;SDS011;41742;52.048;6.092;2022-12-16T12:30:01;20.27;;;9.23;;
55811;SDS011;41742;52.048;6.092;2022-12-16T12:39:02;19.35;;;10.50;;
55811;SDS011;41742;52.048;6.092;2022-12-16T12:42:27;24.80;;;10.43;;
55811;SDS011;41742;52.048;6.092;2022-12-16T12:45:29;19.45;;;10.43;;
55811;SDS011;41742;52.048;6.092;2022-12-16T12:51:30;17.63;;;9.82;;
55811;SDS011;41742;52.048;6.092;2022-12-16T12:54:37;17.85;;;10.52;;
55811;SDS011;41742;52.048;6.092;2022-12-16T12:57:24;18.67;;;9.48;;
55811;SDS011;41742;52.048;6.092;2022-12-16T13:00:13;19.52;;;9.73;;
55811;SDS011;41742;52.048;6.092;2022-12-16T13:06:13;19.75;;;9.85;;
55811;SDS011;41742;52.048;6.092;2022-12-16T13:08:58;19.02;;;10.40;;
55811;SDS011;41742;52.048;6.092;2022-12-16T13:20:40;20.60;;;10.07;;
55811;SDS011;41742;52.048;6.092;2022-12-16T13:23:34;17.42;;;9.77;;
55811;SDS011;41742;52.048;6.092;2022-12-16T13:26:19;21.98;;;11.27;;
55811;SDS011;41742;52.048;6.092;2022-12-16T13:37:52;24.77;;;11.60;;
55811;SDS011;41742;52.048;6.092;2022-12-16T13:43:47;24.73;;;12.95;;
55811;SDS011;41742;52.048;6.092;2022-12-16T13:46:52;24.05;;;12.10;;
55811;SDS011;41742;52.048;6.092;2022-12-16T13:49:40;29.20;;;12.38;;
55811;SDS011;41742;52.048;6.092;2022-12-16T13:58:39;28.70;;;12.95;;
55811;SDS011;41742;52.048;6.092;2022-12-16T14:01:36;25.95;;;11.75;;
55811;SDS011;41742;52.048;6.092;2022-12-16T14:04:28;32.03;;;13.02;;
55811;SDS011;41742;52.048;6.092;2022-12-16T14:07:19;26.45;;;13.23;;
55811;SDS011;41742;52.048;6.092;2022-12-16T14:10:21;26.63;;;13.27;;
55811;SDS011;41742;52.048;6.092;2022-12-16T14:13:21;32.00;;;14.05;;
55811;SDS011;41742;52.048;6.092;2022-12-16T14:27:58;28.25;;;13.55;;
55811;SDS011;41742;52.048;6.092;2022-12-16T14:30:43;37.33;;;15.55;;
55811;SDS011;41742;52.048;6.092;2022-12-16T14:33:28;28.60;;;12.68;;
55811;SDS011;41742;52.048;6.092;2022-12-16T14:39:08;27.67;;;13.60;;
55811;SDS011;41742;52.048;6.092;2022-12-16T14:41:57;31.77;;;13.68;;
55811;SDS011;41742;52.048;6.092;2022-12-16T14:47:28;41.13;;;12.80;;
55811;SDS011;41742;52.048;6.092;2022-12-16T14:50:21;29.23;;;13.38;;
55811;SDS011;41742;52.048;6.092;2022-12-16T14:53:13;30.95;;;13.20;;
55811;SDS011;41742;52.048;6.092;2022-12-16T14:56:15;24.63;;;12.02;;
55811;SDS011;41742;52.048;6.092;2022-12-16T14:59:16;27.67;;;12.40;;
55811;SDS011;41742;52.048;6.092;2022-12-16T15:02:13;27.88;;;12.90;;
55811;SDS011;41742;52.048;6.092;2022-12-16T15:05:06;25.90;;;12.50;;
55811;SDS011;41742;52.048;6.092;2022-12-16T15:07:50;28.98;;;12.55;;
55811;SDS011;41742;52.048;6.092;2022-12-16T15:10:34;32.35;;;13.02;;
55811;SDS011;41742;52.048;6.092;2022-12-16T15:13:19;32.88;;;13.68;;
55811;SDS011;41742;52.048;6.092;2022-12-16T15:18:52;28.88;;;13.30;;
55811;SDS011;41742;52.048;6.092;2022-12-16T15:21:41;36.95;;;15.25;;
55811;SDS011;41742;52.048;6.092;2022-12-16T15:24:26;27.15;;;12.93;;
55811;SDS011;41742;52.048;6.092;2022-12-16T15:33:22;27.58;;;12.25;;
55811;SDS011;41742;52.048;6.092;2022-12-16T15:36:22;29.80;;;13.88;;
55811;SDS011;41742;52.048;6.092;2022-12-16T15:48:31;34.35;;;13.88;;
55811;SDS011;41742;52.048;6.092;2022-12-16T15:54:14;33.13;;;15.93;;
55811;SDS011;41742;52.048;6.092;2022-12-16T15:56:58;35.63;;;14.50;;
55811;SDS011;41742;52.048;6.092;2022-12-16T16:02:44;37.80;;;16.52;;
55811;SDS011;41742;52.048;6.092;2022-12-16T16:05:30;40.95;;;15.80;;
55811;SDS011;41742;52.048;6.092;2022-12-16T16:08:15;37.80;;;16.45;;
55811;SDS011;41742;52.048;6.092;2022-12-16T16:10:59;36.08;;;15.77;;
55811;SDS011;41742;52.048;6.092;2022-12-16T16:13:43;40.55;;;15.88;;
55811;SDS011;41742;52.048;6.092;2022-12-16T16:16:27;36.00;;;16.55;;
55811;SDS011;41742;52.048;6.092;2022-12-16T16:19:15;40.55;;;16.00;;
55811;SDS011;41742;52.048;6.092;2022-12-16T16:22:11;34.35;;;15.30;;
55811;SDS011;41742;52.048;6.092;2022-12-16T16:24:58;42.55;;;16.10;;
55811;SDS011;41742;52.048;6.092;2022-12-16T16:30:27;45.78;;;17.95;;
55811;SDS011;41742;52.048;6.092;2022-12-16T16:33:11;43.80;;;16.70;;
55811;SDS011;41742;52.048;6.092;2022-12-16T16:38:39;43.17;;;17.77;;
55811;SDS011;41742;52.048;6.092;2022-12-16T16:41:23;48.05;;;17.50;;
55811;SDS011;41742;52.048;6.092;2022-12-16T16:46:52;34.00;;;15.50;;
55811;SDS011;41742;52.048;6.092;2022-12-16T16:52:23;40.30;;;17.63;;
55811;SDS011;41742;52.048;6.092;2022-12-16T16:55:13;45.05;;;16.98;;
55811;SDS011;41742;52.048;6.092;2022-12-16T16:57:59;39.55;;;16.88;;
55811;SDS011;41742;52.048;6.092;2022-12-16T17:00:47;31.75;;;15.98;;
55811;SDS011;41742;52.048;6.092;2022-12-16T17:06:15;41.17;;;16.83;;
55811;SDS011;41742;52.048;6.092;2022-12-16T17:09:00;49.05;;;17.02;;
55811;SDS011;41742;52.048;6.092;2022-12-16T17:14:28;37.03;;;15.18;;
55811;SDS011;41742;52.048;6.092;2022-12-16T17:19:56;32.43;;;15.23;;
55811;SDS011;41742;52.048;6.092;2022-12-16T17:22:41;46.55;;;16.38;;
55811;SDS011;41742;52.048;6.092;2022-12-16T17:25:25;42.72;;;17.85;;
55811;SDS011;41742;52.048;6.092;2022-12-16T17:30:54;50.58;;;18.73;;
55811;SDS011;41742;52.048;6.092;2022-12-16T17:33:38;35.85;;;14.00;;
55811;SDS011;41742;52.048;6.092;2022-12-16T17:39:07;37.45;;;14.10;;
55811;SDS011;41742;52.048;6.092;2022-12-16T17:41:53;34.20;;;12.65;;
55811;SDS011;41742;52.048;6.092;2022-12-16T17:47:21;32.27;;;12.97;;
55811;SDS011;41742;52.048;6.092;2022-12-16T17:52:54;29.88;;;11.63;;
55811;SDS011;41742;52.048;6.092;2022-12-16T17:55:39;27.65;;;12.02;;
55811;SDS011;41742;52.048;6.092;2022-12-16T17:58:33;26.95;;;12.27;;
55811;SDS011;41742;52.048;6.092;2022-12-16T18:01:19;32.22;;;13.00;;
55811;SDS011;41742;52.048;6.092;2022-12-16T18:04:04;32.70;;;13.07;;
55811;SDS011;41742;52.048;6.092;2022-12-16T18:06:49;27.35;;;12.10;;
55811;SDS011;41742;52.048;6.092;2022-12-16T18:09:33;26.85;;;12.63;;
55811;SDS011;41742;52.048;6.092;2022-12-16T18:15:02;29.80;;;12.60;;
55811;SDS011;41742;52.048;6.092;2022-12-16T18:17:47;31.25;;;13.60;;
55811;SDS011;41742;52.048;6.092;2022-12-16T18:20:31;31.77;;;13.27;;
55811;SDS011;41742;52.048;6.092;2022-12-16T18:26:01;31.52;;;14.82;;
55811;SDS011;41742;52.048;6.092;2022-12-16T18:28:49;45.60;;;15.80;;
55811;SDS011;41742;52.048;6.092;2022-12-16T18:31:33;38.70;;;15.73;;
55811;SDS011;41742;52.048;6.092;2022-12-16T18:37:02;40.97;;;16.67;;
55811;SDS011;41742;52.048;6.092;2022-12-16T18:39:46;37.35;;;15.55;;
55811;SDS011;41742;52.048;6.092;2022-12-16T18:42:30;38.13;;;14.15;;
55811;SDS011;41742;52.048;6.092;2022-12-16T18:45:15;39.17;;;16.15;;
55811;SDS011;41742;52.048;6.092;2022-12-16T18:50:43;33.03;;;15.23;;
55811;SDS011;41742;52.048;6.092;2022-12-16T18:53:36;33.53;;;15.48;;
55811;SDS011;41742;52.048;6.092;2022-12-16T18:56:20;34.22;;;13.80;;
55811;SDS011;41742;52.048;6.092;2022-12-16T18:59:05;38.60;;;15.32;;
55811;SDS011;41742;52.048;6.092;2022-12-16T19:04:33;30.52;;;14.07;;
55811;SDS011;41742;52.048;6.092;2022-12-16T19:10:02;35.67;;;15.95;;
55811;SDS011;41742;52.048;6.092;2022-12-16T19:12:46;23.92;;;13.57;;
55811;SDS011;41742;52.048;6.092;2022-12-16T19:18:14;36.10;;;14.88;;
55811;SDS011;41742;52.048;6.092;2022-12-16T19:20:59;33.97;;;14.32;;
55811;SDS011;41742;52.048;6.092;2022-12-16T19:23:43;31.67;;;13.70;;
55811;SDS011;41742;52.048;6.092;2022-12-16T19:26:28;38.75;;;14.98;;
55811;SDS011;41742;52.048;6.092;2022-12-16T19:31:56;32.28;;;15.18;;
55811;SDS011;41742;52.048;6.092;2022-12-16T19:34:40;29.00;;;13.95;;
55811;SDS011;41742;52.048;6.092;2022-12-16T19:40:09;31.90;;;13.50;;
55811;SDS011;41742;52.048;6.092;2022-12-16T19:45:37;37.97;;;14.40;;
55811;SDS011;41742;52.048;6.092;2022-12-16T19:48:22;38.00;;;14.77;;
55811;SDS011;41742;52.048;6.092;2022-12-16T19:53:50;33.43;;;12.60;;
55811;SDS011;41742;52.048;6.092;2022-12-16T19:59:21;37.63;;;14.25;;
55811;SDS011;41742;52.048;6.092;2022-12-16T20:04:53;19.65;;;10.40;;
55811;SDS011;41742;52.048;6.092;2022-12-16T20:07:37;28.15;;;12.52;;
55811;SDS011;41742;52.048;6.092;2022-12-16T20:10:21;22.35;;;10.90;;
55811;SDS011;41742;52.048;6.092;2022-12-16T20:13:09;29.40;;;12.60;;
55811;SDS011;41742;52.048;6.092;2022-12-16T20:16:03;24.95;;;12.32;;
55811;SDS011;41742;52.048;6.092;2022-12-16T20:18:49;27.90;;;11.40;;
55811;SDS011;41742;52.048;6.092;2022-12-16T20:24:17;31.00;;;12.70;;
55811;SDS011;41742;52.048;6.092;2022-12-16T20:29:45;25.23;;;10.95;;
55811;SDS011;41742;52.048;6.092;2022-12-16T20:32:30;25.02;;;11.85;;
55811;SDS011;41742;52.048;6.092;2022-12-16T20:35:14;24.05;;;10.70;;
55811;SDS011;41742;52.048;6.092;2022-12-16T20:40:42;25.08;;;10.52;;
55811;SDS011;41742;52.048;6.092;2022-12-16T20:43:27;27.63;;;10.40;;
55811;SDS011;41742;52.048;6.092;2022-12-16T20:46:11;22.08;;;10.52;;
55811;SDS011;41742;52.048;6.092;2022-12-16T20:48:56;27.63;;;9.70;;
55811;SDS011;41742;52.048;6.092;2022-12-16T20:51:40;22.98;;;11.05;;
55811;SDS011;41742;52.048;6.092;2022-12-16T20:57:08;24.45;;;10.75;;
55811;SDS011;41742;52.048;6.092;2022-12-16T20:59:53;21.15;;;10.30;;
55811;SDS011;41742;52.048;6.092;2022-12-16T21:05:21;21.27;;;9.97;;
55811;SDS011;41742;52.048;6.092;2022-12-16T21:10:49;22.37;;;10.13;;
55811;SDS011;41742;52.048;6.092;2022-12-16T21:13:38;20.67;;;11.02;;
55811;SDS011;41742;52.048;6.092;2022-12-16T21:16:33;22.77;;;10.60;;
55811;SDS011;41742;52.048;6.092;2022-12-16T21:22:01;24.30;;;10.63;;
55811;SDS011;41742;52.048;6.092;2022-12-16T21:24:45;18.85;;;10.63;;
55811;SDS011;41742;52.048;6.092;2022-12-16T21:27:29;19.98;;;10.45;;